Accueil
METAR-TAF:

METAR-TAF

Aéroports :

Aéroport de Sion

Sion, Suisse

latitude: 46-13N, longitude: 007-20E, altitude: 482 m

Observation

Le bulletin a été fait il y a 17 minutes, à 19:20 UTC
Vent 13 kt de ouest, variant entre ouest/sud-ouest et ouest/nord-ouest
Température 7°C
Humidité 70%
Pression 1014 hPa
Visibilité 10 km ou plus
Nuages fragmentés à une hauteur de 5000 ft

METAR: LSGS 291920Z AUTO 27013KT 240V300 9999 BKN050 07/02 Q1014

Heure: 21:37 (19:37 UTC)

Prévision

Le bulletin a été fait il y a 5 heures et 12 minutes, à 14:25 UTC
Prévision valable du 29 à 15 UTC au 29 à 24 UTC
Vent 12 kt de ouest/sud-ouest
Visibilité 10 km ou plus
Quelques nuages à une hauteur de 5000 ft
Nuages fragmentés à une hauteur de 10000 ft

TAF: LSGS 291425Z 2915/2924 25012KT 9999 FEW050 BKN100

Observations et prévisions météorologiques de plus de 4000 aéroports (messages METAR et TAF).

Les stations disponibles sont représentées par des disques jaunes et rouges sur la carte.

Passer la souris dessus pour voir le nom de la station.

Cliquer dessus pour voir les observations et prévisions météorologiques.

Pour changer de carte: cliquez sur les boutons verts avec une croix noire pour zoomer, sur le bouton vert avec un tiret pour effectuer un zoom arrière, ou sur les flèches vertes pour les cartes adjacentes.


METAR-TAF: